createdAt,value
2018-05-19T00:02:00.581Z,11.20
2018-05-19T00:04:28.343Z,11.10
2018-05-19T00:06:56.106Z,11.00
2018-05-19T00:09:23.581Z,10.90
2018-05-19T00:11:51.242Z,10.80
2018-05-19T00:14:18.786Z,10.70
2018-05-19T00:16:46.266Z,10.80
2018-05-19T00:19:14.021Z,10.70
2018-05-19T00:21:41.490Z,10.80
2018-05-19T00:24:09.242Z,10.80
2018-05-19T00:26:36.711Z,10.80
2018-05-19T00:29:04.464Z,10.80
2018-05-19T00:31:32.221Z,10.80
2018-05-19T00:33:59.694Z,10.80
2018-05-19T00:36:27.453Z,10.70
2018-05-19T00:38:54.914Z,10.70
2018-05-19T00:41:22.562Z,10.60
2018-05-19T00:43:50.090Z,10.50
2018-05-19T00:46:17.560Z,10.50
2018-05-19T00:48:45.050Z,10.50
2018-05-19T00:51:12.736Z,10.50
2018-05-19T00:53:40.220Z,10.50
2018-05-19T00:56:07.686Z,10.40
2018-05-19T00:58:35.191Z,10.40
2018-05-19T01:01:02.662Z,10.30
2018-05-19T01:03:30.412Z,10.30
2018-05-19T01:05:57.894Z,10.30
2018-05-19T01:08:25.363Z,10.30
2018-05-19T01:10:53.049Z,10.20
2018-05-19T01:13:20.547Z,10.00
2018-05-19T01:15:48.017Z,10.00
2018-05-19T01:18:15.694Z,9.90
2018-05-19T01:20:43.170Z,9.90
2018-05-19T01:23:10.641Z,9.90
2018-05-19T01:25:38.102Z,9.90
2018-05-19T01:28:05.566Z,9.90
2018-05-19T01:30:33.039Z,9.90
2018-05-19T01:33:00.522Z,9.80
2018-05-19T01:35:27.990Z,9.80
2018-05-19T01:37:55.650Z,9.80
2018-05-19T01:40:23.197Z,9.80
2018-05-19T01:42:50.963Z,9.70
2018-05-19T01:45:18.443Z,9.70
2018-05-19T01:47:46.259Z,9.60
2018-05-19T01:50:13.734Z,9.50
2018-05-19T01:52:41.330Z,9.30
2018-05-19T01:55:08.871Z,9.30
2018-05-19T01:57:36.631Z,9.30
2018-05-19T02:00:04.399Z,9.20
2018-05-19T02:02:32.162Z,9.10
2018-05-19T02:04:59.627Z,9.10
2018-05-19T02:07:27.102Z,9.00
2018-05-19T02:09:54.845Z,9.00
2018-05-19T02:12:22.314Z,9.00
2018-05-19T02:14:49.987Z,9.00
2018-05-19T02:17:17.452Z,9.10
2018-05-19T02:19:44.982Z,9.10
2018-05-19T02:22:12.443Z,9.10
2018-05-19T02:24:39.909Z,9.10
2018-05-19T02:27:07.669Z,9.00
2018-05-19T02:29:35.588Z,9.00
2018-05-19T02:32:03.059Z,8.90
2018-05-19T02:34:30.580Z,8.90
2018-05-19T02:36:58.109Z,8.80
2018-05-19T02:39:25.878Z,8.80
2018-05-19T02:41:53.642Z,8.80
2018-05-19T02:44:21.407Z,8.80
2018-05-19T02:46:49.091Z,8.70
2018-05-19T02:49:16.559Z,8.50
2018-05-19T02:51:44.023Z,8.40
2018-05-19T02:54:11.552Z,8.30
2018-05-19T02:56:39.314Z,8.20
2018-05-19T02:59:06.824Z,8.20
2018-05-19T03:01:34.539Z,8.20
2018-05-19T03:04:01.998Z,8.20
2018-05-19T03:06:29.461Z,8.20
2018-05-19T03:08:57.210Z,8.30
2018-05-19T03:11:24.679Z,8.40
2018-05-19T03:13:52.147Z,8.50
2018-05-19T03:16:19.607Z,8.50
2018-05-19T03:18:47.244Z,8.60
2018-05-19T03:21:14.705Z,8.60
2018-05-19T03:23:42.170Z,8.60
2018-05-19T03:26:09.631Z,8.70
2018-05-19T03:28:37.111Z,8.70
2018-05-19T03:31:04.646Z,8.70
2018-05-19T03:33:32.132Z,8.60
2018-05-19T03:35:59.880Z,8.60
2018-05-19T03:38:27.640Z,8.70
2018-05-19T03:40:55.101Z,8.80
2018-05-19T03:43:22.858Z,8.80
2018-05-19T03:45:50.619Z,8.80
2018-05-19T03:48:18.093Z,8.70
2018-05-19T03:50:45.758Z,8.70
2018-05-19T03:53:13.214Z,8.70
2018-05-19T03:55:40.770Z,8.70
2018-05-19T03:58:19.993Z,8.70
2018-05-19T04:00:59.644Z,8.50
2018-05-19T04:03:27.099Z,8.50
2018-05-19T04:05:54.558Z,8.40
2018-05-19T04:08:22.028Z,8.50
2018-05-19T04:10:49.776Z,8.40
2018-05-19T04:13:17.242Z,8.50
2018-05-19T04:15:45.619Z,8.50
2018-05-19T04:18:13.092Z,8.40
2018-05-19T04:20:40.834Z,8.40
2018-05-19T04:23:08.296Z,8.40
2018-05-19T04:25:35.806Z,8.40
2018-05-19T04:28:03.520Z,8.40
2018-05-19T04:30:31.351Z,8.60
2018-05-19T04:32:58.806Z,8.60
2018-05-19T04:35:26.346Z,8.70
2018-05-19T04:37:53.972Z,8.70
2018-05-19T04:40:21.733Z,8.70
2018-05-19T04:42:49.199Z,8.70
2018-05-19T04:45:16.875Z,8.80
2018-05-19T04:47:44.341Z,8.90
2018-05-19T04:50:11.875Z,9.00
2018-05-19T04:52:39.636Z,9.00
2018-05-19T04:55:07.273Z,9.00
2018-05-19T04:57:34.863Z,9.10
2018-05-19T05:00:02.625Z,9.30
2018-05-19T05:02:30.093Z,9.40
2018-05-19T05:04:57.852Z,9.50
2018-05-19T05:07:25.611Z,9.60
2018-05-19T05:09:53.298Z,9.70
2018-05-19T05:12:20.770Z,9.80
2018-05-19T05:14:48.290Z,9.90
2018-05-19T05:17:15.786Z,10.00
2018-05-19T05:19:43.521Z,10.10
2018-05-19T05:22:10.991Z,10.10
2018-05-19T05:24:38.601Z,10.20
2018-05-19T05:27:06.135Z,10.30
2018-05-19T05:29:33.595Z,10.30
2018-05-19T05:32:01.119Z,10.30
2018-05-19T05:34:28.605Z,10.30
2018-05-19T05:36:56.294Z,10.30
2018-05-19T05:39:23.799Z,10.50
2018-05-19T05:41:51.567Z,10.50
2018-05-19T05:44:19.297Z,10.50
2018-05-19T05:46:46.770Z,10.70
2018-05-19T05:49:14.247Z,10.80
2018-05-19T05:51:41.923Z,10.90
2018-05-19T05:54:09.462Z,10.90
2018-05-19T05:56:36.974Z,11.00
2018-05-19T05:59:04.431Z,11.10
2018-05-19T06:01:31.902Z,11.20
2018-05-19T06:03:59.605Z,11.30
2018-05-19T06:06:27.312Z,11.40
2018-05-19T06:08:54.977Z,11.40
2018-05-19T06:11:22.595Z,11.40
2018-05-19T06:13:50.062Z,11.30
2018-05-19T06:16:17.822Z,11.50
2018-05-19T06:18:45.401Z,11.70
2018-05-19T06:21:12.765Z,11.60
2018-05-19T06:23:40.232Z,11.80
2018-05-19T06:26:07.699Z,12.00
2018-05-19T06:28:35.317Z,12.10
2018-05-19T06:31:02.874Z,12.30
2018-05-19T06:33:30.554Z,12.60
2018-05-19T06:35:58.090Z,12.70
2018-05-19T06:38:25.859Z,12.90
2018-05-19T06:40:53.322Z,13.00
2018-05-19T06:43:20.791Z,13.10
2018-05-19T06:45:48.296Z,13.20
2018-05-19T06:48:15.786Z,13.40
2018-05-19T06:50:43.460Z,13.40
2018-05-19T06:53:10.934Z,13.40
2018-05-19T06:55:38.406Z,13.60
2018-05-19T06:58:05.863Z,13.60
2018-05-19T07:00:33.905Z,13.70
2018-05-19T07:03:01.362Z,13.70
2018-05-19T07:05:29.121Z,13.80
2018-05-19T07:07:56.643Z,13.90
2018-05-19T07:10:24.355Z,13.90
2018-05-19T07:12:51.914Z,14.00
2018-05-19T07:15:19.574Z,14.10
2018-05-19T07:17:47.234Z,14.20
2018-05-19T07:20:14.747Z,14.30
2018-05-19T07:22:42.249Z,14.40
2018-05-19T07:25:10.017Z,14.50
2018-05-19T07:27:37.786Z,14.50
2018-05-19T07:30:05.550Z,14.50
2018-05-19T07:32:33.309Z,14.60
2018-05-19T07:35:01.083Z,14.80
2018-05-19T07:37:28.848Z,14.90
2018-05-19T07:39:56.531Z,15.00
2018-05-19T07:42:24.066Z,15.20
2018-05-19T07:44:51.827Z,15.30
2018-05-19T07:47:19.290Z,15.20
2018-05-19T07:49:46.872Z,15.10
2018-05-19T07:52:15.186Z,15.30
2018-05-19T07:54:42.894Z,15.30
2018-05-19T07:57:10.365Z,15.40
2018-05-19T07:59:38.146Z,15.60
2018-05-19T08:02:05.594Z,15.60
2018-05-19T08:04:33.058Z,15.60
2018-05-19T08:07:00.803Z,15.90
2018-05-19T08:09:29.175Z,16.10
2018-05-19T08:11:56.939Z,16.00
2018-05-19T08:14:24.414Z,16.30
2018-05-19T08:16:51.878Z,16.70
2018-05-19T08:19:19.630Z,16.90
2018-05-19T08:21:47.094Z,17.10
2018-05-19T08:24:14.850Z,16.90
2018-05-19T08:26:43.823Z,16.60
2018-05-19T08:29:11.305Z,16.60
2018-05-19T08:31:39.062Z,17.10
2018-05-19T08:34:08.070Z,18.30
2018-05-19T08:36:35.534Z,18.40
2018-05-19T08:39:03.277Z,18.70
2018-05-19T08:41:32.269Z,20.50
2018-05-19T08:44:01.261Z,20.90
2018-05-19T08:46:28.728Z,20.90
2018-05-19T08:48:56.495Z,20.70
2018-05-19T08:51:24.254Z,21.20
2018-05-19T08:53:51.755Z,21.30
2018-05-19T08:56:19.330Z,22.10
2018-05-19T08:58:46.943Z,22.70
2018-05-19T09:01:14.418Z,23.20
2018-05-19T09:03:42.086Z,23.20
2018-05-19T09:06:09.617Z,22.80
2018-05-19T09:08:37.391Z,23.90
2018-05-19T09:11:05.158Z,25.30
2018-05-19T09:13:32.923Z,26.30
2018-05-19T09:16:00.379Z,26.00
2018-05-19T09:18:28.066Z,26.50
2018-05-19T09:20:56.517Z,28.20
2018-05-19T09:23:24.069Z,28.10
2018-05-19T09:25:51.744Z,28.50
2018-05-19T09:28:19.439Z,29.30
2018-05-19T09:30:46.974Z,29.80
2018-05-19T09:33:14.734Z,29.50
2018-05-19T09:35:42.590Z,30.20
2018-05-19T09:38:10.261Z,30.50
2018-05-19T09:40:38.023Z,30.20
2018-05-19T09:43:05.507Z,28.70
2018-05-19T09:45:33.179Z,28.00
2018-05-19T09:48:00.642Z,28.50
2018-05-19T09:50:28.130Z,27.70
2018-05-19T09:52:55.582Z,26.70
2018-05-19T09:55:23.236Z,26.90
2018-05-19T09:57:50.710Z,27.40
2018-05-19T10:00:18.310Z,28.00
2018-05-19T10:02:45.762Z,27.00
2018-05-19T10:05:13.599Z,26.10
2018-05-19T10:07:41.290Z,27.20
2018-05-19T10:10:08.763Z,29.20
2018-05-19T10:12:36.218Z,29.80
2018-05-19T10:15:03.678Z,30.70
2018-05-19T10:17:31.435Z,31.80
2018-05-19T10:19:59.203Z,31.80
2018-05-19T10:22:26.671Z,31.60
2018-05-19T10:24:54.337Z,32.20
2018-05-19T10:27:21.883Z,32.40
2018-05-19T10:29:49.458Z,32.60
2018-05-19T10:32:17.761Z,31.80
2018-05-19T10:34:45.248Z,31.80
2018-05-19T10:37:12.935Z,32.10
2018-05-19T10:39:40.398Z,32.30
2018-05-19T10:42:08.167Z,31.60
2018-05-19T10:44:35.639Z,32.40
2018-05-19T10:47:03.391Z,32.60
2018-05-19T10:49:30.867Z,33.00
2018-05-19T10:51:58.329Z,31.00
2018-05-19T10:54:25.795Z,30.60
2018-05-19T10:56:53.270Z,31.60
2018-05-19T10:59:20.993Z,31.40
2018-05-19T11:01:48.493Z,32.00
2018-05-19T11:04:16.222Z,33.20
2018-05-19T11:06:43.975Z,32.80
2018-05-19T11:09:11.746Z,32.60
2018-05-19T11:11:39.205Z,32.70
2018-05-19T11:14:07.434Z,34.00
2018-05-19T11:16:34.951Z,33.90
2018-05-19T11:19:02.421Z,34.30
2018-05-19T11:21:30.063Z,34.60
2018-05-19T11:23:57.649Z,34.20
2018-05-19T11:26:25.326Z,33.70
2018-05-19T11:28:52.794Z,34.70
2018-05-19T11:31:20.263Z,35.40
2018-05-19T11:33:47.864Z,35.90
2018-05-19T11:36:16.237Z,36.20
2018-05-19T11:38:45.227Z,35.90
2018-05-19T11:41:14.224Z,36.40
2018-05-19T11:43:41.691Z,36.40
2018-05-19T11:46:09.978Z,32.90
2018-05-19T11:48:37.523Z,33.00
2018-05-19T11:51:05.283Z,32.20
2018-05-19T11:53:33.061Z,31.20
2018-05-19T11:56:00.810Z,30.50
2018-05-19T11:58:28.578Z,32.00
2018-05-19T12:00:56.360Z,33.40
2018-05-19T12:03:23.835Z,33.90
2018-05-19T12:05:51.435Z,34.70
2018-05-19T12:08:18.778Z,34.30
2018-05-19T12:10:46.242Z,33.70
2018-05-19T12:13:13.976Z,33.40
2018-05-19T12:15:41.709Z,32.20
2018-05-19T12:18:09.475Z,31.30
2018-05-19T12:20:37.246Z,30.80
2018-05-19T12:23:05.017Z,29.30
2018-05-19T12:25:32.770Z,28.30
2018-05-19T12:28:00.538Z,28.90
2018-05-19T12:30:28.011Z,29.70
2018-05-19T12:32:55.677Z,29.80
2018-05-19T12:35:23.134Z,30.40
2018-05-19T12:37:51.194Z,31.00
2018-05-19T12:40:18.742Z,31.70
2018-05-19T12:42:46.331Z,32.50
2018-05-19T12:45:14.563Z,30.80
2018-05-19T12:47:42.350Z,30.70
2018-05-19T12:50:09.810Z,30.10
2018-05-19T12:52:37.286Z,29.70
2018-05-19T12:55:04.943Z,29.60
2018-05-19T12:57:32.551Z,29.40
2018-05-19T12:59:59.951Z,30.10
2018-05-19T13:02:27.415Z,32.00
2018-05-19T13:04:55.179Z,33.40
2018-05-19T13:07:24.162Z,33.70
2018-05-19T13:09:51.631Z,33.70
2018-05-19T13:12:20.003Z,33.60
2018-05-19T13:14:48.987Z,34.20
2018-05-19T13:17:16.467Z,34.30
2018-05-19T13:19:43.931Z,33.90
2018-05-19T13:22:11.410Z,33.70
2018-05-19T13:24:39.082Z,34.00
2018-05-19T13:27:06.603Z,34.30
2018-05-19T13:29:35.894Z,35.00
2018-05-19T13:32:04.886Z,35.40
2018-05-19T13:34:33.883Z,34.00
2018-05-19T13:37:02.869Z,33.00
2018-05-19T13:39:30.334Z,33.00
2018-05-19T13:41:59.315Z,32.50
2018-05-19T13:44:26.799Z,32.50
2018-05-19T13:46:54.649Z,31.50
2018-05-19T13:49:21.942Z,31.00
2018-05-19T13:51:49.423Z,30.70
2018-05-19T13:54:16.922Z,30.00
2018-05-19T13:56:44.385Z,29.20
2018-05-19T13:59:12.150Z,28.50
2018-05-19T14:01:39.914Z,28.00
2018-05-19T14:04:07.387Z,27.50
2018-05-19T14:06:35.044Z,27.50
2018-05-19T14:09:02.514Z,28.90
2018-05-19T14:11:30.000Z,30.30
2018-05-19T14:13:57.813Z,30.90
2018-05-19T14:16:25.506Z,31.60
2018-05-19T14:18:52.982Z,32.10
2018-05-19T14:21:20.451Z,32.80
2018-05-19T14:23:47.914Z,33.20
2018-05-19T14:26:15.375Z,32.70
2018-05-19T14:28:42.874Z,32.20
2018-05-19T14:31:10.562Z,31.30
2018-05-19T14:33:38.019Z,30.30
2018-05-19T14:36:05.490Z,29.50
2018-05-19T14:38:33.013Z,28.40
2018-05-19T14:41:00.491Z,27.60
2018-05-19T14:43:28.234Z,26.90
2018-05-19T14:45:55.994Z,26.30
2018-05-19T14:48:23.767Z,26.10
2018-05-19T14:50:51.478Z,25.80
2018-05-19T14:53:19.009Z,26.10
2018-05-19T14:55:47.238Z,27.30
2018-05-19T14:58:14.743Z,27.30
2018-05-19T15:00:42.287Z,28.00
2018-05-19T15:03:09.750Z,28.40
2018-05-19T15:05:37.427Z,29.20
2018-05-19T15:08:04.943Z,30.00
2018-05-19T15:10:32.401Z,29.90
2018-05-19T15:12:59.891Z,29.20
2018-05-19T15:15:27.646Z,28.80
2018-05-19T15:17:55.415Z,28.50
2018-05-19T15:20:22.878Z,28.10
2018-05-19T15:22:50.342Z,27.40
2018-05-19T15:25:18.093Z,27.20
2018-05-19T15:27:45.856Z,26.20
2018-05-19T15:30:13.594Z,26.00
2018-05-19T15:32:41.063Z,25.70
2018-05-19T15:35:08.522Z,25.50
2018-05-19T15:37:36.001Z,25.20
2018-05-19T15:40:03.482Z,24.90
2018-05-19T15:42:31.135Z,24.80
2018-05-19T15:44:58.597Z,24.50
2018-05-19T15:47:26.071Z,24.50
2018-05-19T15:49:53.551Z,24.30
2018-05-19T15:52:21.263Z,24.30
2018-05-19T15:54:49.663Z,24.50
2018-05-19T15:57:17.195Z,24.50
2018-05-19T15:59:44.964Z,24.30
2018-05-19T16:02:12.730Z,24.30
2018-05-19T16:04:40.505Z,24.10
2018-05-19T16:07:07.966Z,24.10
2018-05-19T16:09:35.430Z,24.10
2018-05-19T16:12:03.171Z,23.70
2018-05-19T16:14:30.805Z,23.60
2018-05-19T16:16:58.319Z,23.40
2018-05-19T16:19:25.779Z,23.30
2018-05-19T16:21:53.314Z,23.20
2018-05-19T16:24:20.786Z,22.90
2018-05-19T16:26:48.455Z,22.80
2018-05-19T16:29:16.007Z,22.90
2018-05-19T16:31:43.683Z,22.90
2018-05-19T16:34:11.146Z,22.70
2018-05-19T16:36:38.623Z,22.50
2018-05-19T16:39:06.082Z,22.50
2018-05-19T16:41:33.551Z,22.60
2018-05-19T16:44:01.056Z,22.60
2018-05-19T16:46:28.816Z,22.60
2018-05-19T16:48:56.281Z,22.50
2018-05-19T16:51:23.782Z,22.40
2018-05-19T16:53:51.246Z,22.30
2018-05-19T16:56:18.739Z,22.20
2018-05-19T16:58:46.406Z,22.10
2018-05-19T17:01:13.874Z,22.10
2018-05-19T17:03:41.641Z,22.10
2018-05-19T17:06:09.095Z,22.00
2018-05-19T17:08:36.865Z,22.00
2018-05-19T17:11:04.338Z,21.80
2018-05-19T17:13:32.091Z,21.70
2018-05-19T17:15:59.759Z,21.60
2018-05-19T17:18:27.302Z,21.50
2018-05-19T17:20:54.757Z,21.40
2018-05-19T17:23:22.529Z,21.30
2018-05-19T17:25:50.219Z,21.30
2018-05-19T17:28:17.754Z,21.20
2018-05-19T17:30:45.214Z,21.20
2018-05-19T17:33:12.683Z,21.30
2018-05-19T17:35:40.151Z,21.30
2018-05-19T17:38:07.891Z,21.30
2018-05-19T17:40:35.366Z,21.20
2018-05-19T17:43:02.831Z,21.10
2018-05-19T17:45:30.725Z,21.20
2018-05-19T17:47:58.243Z,21.20
2018-05-19T17:50:25.790Z,21.10
2018-05-19T17:52:53.268Z,21.00
2018-05-19T17:55:20.727Z,20.90
2018-05-19T17:57:48.250Z,20.80
2018-05-19T18:00:15.802Z,20.80
2018-05-19T18:02:43.314Z,20.60
2018-05-19T18:05:10.868Z,20.40
2018-05-19T18:07:38.341Z,20.30
2018-05-19T18:10:05.726Z,20.30
2018-05-19T18:12:33.539Z,20.30
2018-05-19T18:15:01.301Z,20.30
2018-05-19T18:17:28.985Z,20.20
2018-05-19T18:19:56.518Z,20.20
2018-05-19T18:22:23.977Z,20.20
2018-05-19T18:24:51.745Z,20.10
2018-05-19T18:27:19.510Z,20.10
2018-05-19T18:29:47.035Z,20.00
2018-05-19T18:32:14.725Z,19.90
2018-05-19T18:34:43.702Z,19.70
2018-05-19T18:37:11.186Z,19.70
2018-05-19T18:39:40.160Z,19.60
2018-05-19T18:42:07.638Z,19.50
2018-05-19T18:44:35.423Z,19.50
2018-05-19T18:47:03.078Z,19.50
2018-05-19T18:49:30.635Z,19.50
2018-05-19T18:51:58.315Z,19.40
2018-05-19T18:54:25.857Z,19.30
2018-05-19T18:56:54.847Z,19.00
2018-05-19T18:59:23.141Z,19.00
2018-05-19T19:01:50.610Z,18.90
2018-05-19T19:04:18.074Z,18.90
2018-05-19T19:06:45.658Z,18.80
2018-05-19T19:09:13.360Z,18.80
2018-05-19T19:11:42.352Z,18.60
2018-05-19T19:14:11.331Z,18.50
2018-05-19T19:16:38.789Z,18.50
2018-05-19T19:19:06.569Z,18.50
2018-05-19T19:21:35.550Z,18.20
2018-05-19T19:24:03.010Z,18.20
2018-05-19T19:26:30.790Z,18.20
2018-05-19T19:28:59.770Z,18.10
2018-05-19T19:31:27.252Z,18.10
2018-05-19T19:33:54.726Z,18.00
2018-05-19T19:36:22.409Z,17.90
2018-05-19T19:38:49.870Z,17.80
2018-05-19T19:41:17.339Z,17.70
2018-05-19T19:43:44.837Z,17.60
2018-05-19T19:46:12.406Z,17.50
2018-05-19T19:48:39.863Z,17.40
2018-05-19T19:51:07.526Z,17.20
2018-05-19T19:53:36.510Z,17.10
2018-05-19T19:56:03.986Z,17.10
2018-05-19T19:58:31.743Z,17.00
2018-05-19T20:01:00.100Z,16.80
2018-05-19T20:03:27.620Z,16.70
2018-05-19T20:05:55.138Z,16.60
2018-05-19T20:08:22.698Z,16.60
2018-05-19T20:10:50.257Z,16.50
2018-05-19T20:13:17.861Z,16.40
2018-05-19T20:15:45.425Z,16.50
2018-05-19T20:18:13.138Z,16.40
2018-05-19T20:20:40.645Z,16.40
2018-05-19T20:23:08.187Z,16.30
2018-05-19T20:25:36.705Z,16.30
2018-05-19T20:28:04.248Z,16.30
2018-05-19T20:30:31.738Z,16.30
2018-05-19T20:32:59.248Z,16.20
2018-05-19T20:35:27.487Z,16.20
2018-05-19T20:37:54.983Z,16.20
2018-05-19T20:40:22.521Z,16.10
2018-05-19T20:42:50.810Z,16.10
2018-05-19T20:45:18.335Z,16.00
2018-05-19T20:47:45.920Z,16.00
2018-05-19T20:50:13.428Z,15.90
2018-05-19T20:52:41.082Z,15.90
2018-05-19T20:55:08.674Z,15.90
2018-05-19T20:57:36.150Z,15.70
2018-05-19T21:00:03.623Z,15.70
2018-05-19T21:02:31.094Z,15.60
2018-05-19T21:04:58.634Z,15.60
2018-05-19T21:07:26.114Z,15.50
2018-05-19T21:09:53.858Z,15.50
2018-05-19T21:12:21.628Z,15.50
2018-05-19T21:14:49.102Z,15.50
2018-05-19T21:17:16.566Z,15.50
2018-05-19T21:19:44.030Z,15.30
2018-05-19T21:22:11.685Z,15.40
2018-05-19T21:24:39.222Z,15.30
2018-05-19T21:27:06.846Z,15.20
2018-05-19T21:29:34.440Z,15.20
2018-05-19T21:32:02.214Z,15.10
2018-05-19T21:34:29.890Z,15.00
2018-05-19T21:36:57.431Z,15.00
2018-05-19T21:39:25.198Z,14.90
2018-05-19T21:41:52.666Z,14.90
2018-05-19T21:44:20.338Z,14.80
2018-05-19T21:46:47.806Z,14.70
2018-05-19T21:49:15.342Z,14.70
2018-05-19T21:51:42.986Z,14.60
2018-05-19T21:54:10.558Z,14.60
2018-05-19T21:56:38.170Z,14.60
2018-05-19T21:59:05.784Z,14.50
2018-05-19T22:01:33.250Z,14.40
2018-05-19T22:04:00.730Z,14.40
2018-05-19T22:06:28.205Z,14.40
2018-05-19T22:08:55.980Z,14.30
2018-05-19T22:11:23.687Z,14.20
2018-05-19T22:13:51.164Z,14.20
2018-05-19T22:16:18.646Z,14.20
2018-05-19T22:18:46.113Z,14.10
2018-05-19T22:21:13.702Z,14.10
2018-05-19T22:23:41.278Z,14.00
2018-05-19T22:26:08.856Z,13.90
2018-05-19T22:28:37.090Z,13.80
2018-05-19T22:31:04.578Z,13.80
2018-05-19T22:33:32.305Z,13.70
2018-05-19T22:35:59.774Z,13.70
2018-05-19T22:38:27.251Z,13.60
2018-05-19T22:40:54.714Z,13.60
2018-05-19T22:43:22.268Z,13.50
2018-05-19T22:45:49.859Z,13.30
2018-05-19T22:48:17.327Z,13.30
2018-05-19T22:50:44.795Z,13.20
2018-05-19T22:53:12.320Z,13.10
2018-05-19T22:55:39.786Z,13.00
2018-05-19T22:58:07.543Z,13.00
2018-05-19T23:00:35.231Z,12.90
2018-05-19T23:03:02.694Z,12.90
2018-05-19T23:05:30.170Z,12.90
2018-05-19T23:07:57.642Z,12.90
2018-05-19T23:10:25.114Z,13.00
2018-05-19T23:12:52.588Z,12.90
2018-05-19T23:15:20.065Z,12.90
2018-05-19T23:17:47.738Z,12.90
2018-05-19T23:20:15.218Z,12.80
2018-05-19T23:22:42.686Z,12.70
2018-05-19T23:25:10.193Z,12.70
2018-05-19T23:27:37.654Z,12.70
2018-05-19T23:30:05.135Z,12.60
2018-05-19T23:32:32.825Z,12.60
2018-05-19T23:35:00.298Z,12.60
2018-05-19T23:37:27.766Z,12.60
2018-05-19T23:39:55.237Z,12.60
2018-05-19T23:42:22.705Z,12.50
2018-05-19T23:44:50.173Z,12.50
2018-05-19T23:47:17.924Z,12.40
2018-05-19T23:49:45.390Z,12.40
2018-05-19T23:52:13.082Z,12.30
2018-05-19T23:54:40.609Z,12.30
2018-05-19T23:57:08.066Z,12.20
2018-05-19T23:59:35.654Z,12.30
